createdAt,value
2023-05-19T00:02:27.290Z,17.51
2023-05-19T00:04:55.116Z,17.43
2023-05-19T00:07:28.747Z,17.40
2023-05-19T00:09:56.340Z,17.38
2023-05-19T00:12:24.039Z,17.37
2023-05-19T00:14:51.920Z,17.31
2023-05-19T00:17:20.271Z,17.42
2023-05-19T00:19:47.946Z,17.28
2023-05-19T00:22:15.862Z,17.25
2023-05-19T00:24:43.279Z,17.18
2023-05-19T00:27:11.071Z,17.20
2023-05-19T00:29:38.480Z,17.12
2023-05-19T00:32:06.345Z,17.19
2023-05-19T00:34:34.184Z,17.25
2023-05-19T00:37:01.596Z,17.21
2023-05-19T00:39:29.006Z,17.13
2023-05-19T00:41:56.505Z,17.15
2023-05-19T00:44:23.919Z,17.22
2023-05-19T00:46:51.438Z,17.18
2023-05-19T00:49:18.915Z,17.12
2023-05-19T00:51:46.496Z,17.14
2023-05-19T00:54:13.956Z,17.05
2023-05-19T00:56:41.694Z,17.05
2023-05-19T00:59:09.100Z,17.12
2023-05-19T01:01:37.236Z,17.19
2023-05-19T01:04:05.519Z,17.29
2023-05-19T01:06:33.283Z,17.22
2023-05-19T01:09:00.651Z,17.16
2023-05-19T01:11:28.701Z,17.12
2023-05-19T01:13:56.383Z,17.16
2023-05-19T01:16:37.498Z,17.29
2023-05-19T01:19:19.993Z,17.27
2023-05-19T01:22:13.205Z,17.20
2023-05-19T01:24:50.972Z,17.32
2023-05-19T01:27:37.885Z,17.24
2023-05-19T01:30:26.393Z,17.15
2023-05-19T01:32:59.108Z,17.10
2023-05-19T01:35:27.712Z,17.23
2023-05-19T01:37:58.069Z,17.43
2023-05-19T01:40:27.568Z,17.24
2023-05-19T01:42:58.035Z,17.05
2023-05-19T01:45:31.679Z,17.01
2023-05-19T01:48:01.420Z,17.07
2023-05-19T01:50:29.329Z,17.01
2023-05-19T01:53:01.032Z,16.98
2023-05-19T01:55:28.570Z,16.99
2023-05-19T01:58:14.804Z,17.13
2023-05-19T02:00:53.143Z,17.02
2023-05-19T02:03:32.852Z,17.01
2023-05-19T02:06:06.248Z,17.02
2023-05-19T02:08:51.310Z,16.99
2023-05-19T02:11:31.426Z,16.97
2023-05-19T02:14:02.811Z,16.99
2023-05-19T02:16:30.821Z,16.93
2023-05-19T02:18:59.580Z,16.89
2023-05-19T02:21:27.182Z,16.83
2023-05-19T02:23:55.701Z,16.89
2023-05-19T02:26:23.084Z,16.89
2023-05-19T02:28:50.684Z,16.85
2023-05-19T02:31:18.601Z,17.04
2023-05-19T02:33:46.288Z,16.96
2023-05-19T02:36:14.576Z,16.83
2023-05-19T02:38:41.999Z,16.90
2023-05-19T02:41:09.309Z,16.87
2023-05-19T02:43:37.001Z,16.92
2023-05-19T02:46:04.465Z,16.88
2023-05-19T02:48:31.858Z,16.82
2023-05-19T02:51:00.265Z,16.84
2023-05-19T02:53:27.696Z,16.70
2023-05-19T02:55:55.055Z,16.81
2023-05-19T02:58:23.049Z,16.80
2023-05-19T03:00:51.498Z,16.80
2023-05-19T03:03:18.997Z,16.88
2023-05-19T03:05:47.361Z,16.74
2023-05-19T03:08:14.942Z,16.60
2023-05-19T03:10:42.321Z,16.68
2023-05-19T03:13:09.760Z,16.69
2023-05-19T03:15:37.246Z,16.82
2023-05-19T03:18:05.346Z,16.74
2023-05-19T03:20:33.406Z,16.72
2023-05-19T03:23:01.331Z,16.71
2023-05-19T03:25:30.182Z,16.68
2023-05-19T03:27:57.699Z,16.75
2023-05-19T03:30:25.316Z,16.67
2023-05-19T03:33:18.251Z,16.60
2023-05-19T03:35:46.543Z,16.56
2023-05-19T03:38:14.892Z,16.63
2023-05-19T03:40:49.501Z,16.57
2023-05-19T03:43:17.218Z,16.44
2023-05-19T03:45:49.917Z,16.24
2023-05-19T03:48:37.195Z,16.21
2023-05-19T03:51:28.660Z,16.41
2023-05-19T03:54:00.503Z,16.47
2023-05-19T03:56:28.934Z,16.56
2023-05-19T03:58:56.599Z,16.51
2023-05-19T04:01:24.274Z,16.44
2023-05-19T04:03:51.735Z,16.45
2023-05-19T04:06:19.198Z,16.36
2023-05-19T04:08:46.611Z,16.36
2023-05-19T04:11:14.215Z,16.37
2023-05-19T04:13:41.714Z,16.24
2023-05-19T04:16:09.233Z,16.08
2023-05-19T04:18:36.832Z,16.18
2023-05-19T04:21:05.176Z,16.09
2023-05-19T04:23:32.620Z,16.18
2023-05-19T04:26:03.777Z,16.21
2023-05-19T04:28:31.227Z,16.34
2023-05-19T04:30:58.891Z,16.28
2023-05-19T04:33:26.625Z,16.47
2023-05-19T04:35:55.166Z,16.25
2023-05-19T04:38:22.595Z,16.25
2023-05-19T04:40:52.044Z,16.34
2023-05-19T04:43:19.497Z,16.31
2023-05-19T04:45:50.182Z,16.28
2023-05-19T04:48:18.190Z,16.46
2023-05-19T04:50:45.722Z,16.41
2023-05-19T04:53:13.162Z,16.50
2023-05-19T04:55:40.801Z,16.54
2023-05-19T04:58:08.253Z,16.49
2023-05-19T05:00:37.290Z,16.67
2023-05-19T05:03:08.375Z,16.65
2023-05-19T05:05:36.807Z,16.66
2023-05-19T05:08:04.462Z,16.67
2023-05-19T05:10:39.706Z,16.76
2023-05-19T05:13:07.946Z,16.86
2023-05-19T05:15:37.074Z,16.90
2023-05-19T05:18:05.071Z,16.85
2023-05-19T05:20:33.272Z,16.81
2023-05-19T05:23:01.239Z,16.85
2023-05-19T05:25:29.259Z,16.87
2023-05-19T05:27:58.989Z,16.86
2023-05-19T05:30:26.478Z,16.92
2023-05-19T05:32:54.310Z,16.84
2023-05-19T05:35:42.010Z,16.82
2023-05-19T05:38:11.804Z,16.94
2023-05-19T05:40:40.182Z,16.88
2023-05-19T05:43:08.700Z,17.07
2023-05-19T05:45:42.152Z,17.02
2023-05-19T05:48:10.115Z,17.13
2023-05-19T05:50:37.961Z,17.15
2023-05-19T05:53:07.276Z,17.18
2023-05-19T05:55:37.340Z,17.20
2023-05-19T05:58:06.513Z,17.25
2023-05-19T06:00:37.068Z,17.31
2023-05-19T06:03:05.831Z,17.40
2023-05-19T06:05:33.554Z,17.22
2023-05-19T06:08:01.289Z,17.16
2023-05-19T06:10:29.024Z,17.13
2023-05-19T06:12:58.748Z,17.14
2023-05-19T06:15:26.979Z,17.27
2023-05-19T06:18:04.865Z,17.15
2023-05-19T06:20:32.630Z,17.22
2023-05-19T06:23:01.404Z,17.27
2023-05-19T06:25:29.756Z,17.30
2023-05-19T06:27:58.142Z,17.42
2023-05-19T06:30:26.049Z,17.30
2023-05-19T06:33:04.775Z,17.37
2023-05-19T06:35:33.016Z,17.32
2023-05-19T06:38:00.647Z,17.41
2023-05-19T06:40:28.434Z,17.40
2023-05-19T06:42:55.993Z,17.25
2023-05-19T06:45:35.267Z,17.35
2023-05-19T06:48:04.605Z,17.40
2023-05-19T06:50:32.316Z,17.31
2023-05-19T06:52:59.953Z,17.41
2023-05-19T06:55:27.692Z,17.28
2023-05-19T06:57:55.304Z,17.33
2023-05-19T07:00:23.955Z,17.31
2023-05-19T07:02:53.531Z,17.29
2023-05-19T07:05:21.691Z,17.25
2023-05-19T07:07:53.565Z,17.20
2023-05-19T07:10:25.000Z,17.23
2023-05-19T07:12:53.541Z,17.24
2023-05-19T07:15:23.962Z,17.27
2023-05-19T07:17:51.431Z,17.26
2023-05-19T07:20:20.111Z,17.26
2023-05-19T07:22:47.737Z,17.33
2023-05-19T07:25:15.943Z,17.46
2023-05-19T07:27:45.887Z,17.48
2023-05-19T07:30:13.643Z,17.71
2023-05-19T07:32:44.041Z,17.69
2023-05-19T07:35:11.682Z,17.75
2023-05-19T07:37:39.294Z,18.08
2023-05-19T07:40:08.021Z,17.83
2023-05-19T07:42:35.528Z,17.73
2023-05-19T07:45:03.604Z,17.83
2023-05-19T07:47:33.793Z,17.85
2023-05-19T07:50:01.253Z,17.83
2023-05-19T07:52:28.720Z,17.79
2023-05-19T07:54:56.322Z,17.79
2023-05-19T07:57:23.818Z,17.57
2023-05-19T07:59:51.406Z,17.71
2023-05-19T08:02:18.890Z,17.59
2023-05-19T08:04:46.316Z,17.64
2023-05-19T08:07:13.841Z,17.66
2023-05-19T08:09:41.178Z,17.75
2023-05-19T08:12:08.579Z,17.79
2023-05-19T08:14:36.371Z,17.55
2023-05-19T08:17:03.872Z,17.61
2023-05-19T08:19:31.308Z,17.68
2023-05-19T08:22:01.152Z,17.57
2023-05-19T08:24:32.841Z,17.71
2023-05-19T08:27:00.616Z,17.92
2023-05-19T08:29:27.994Z,18.01
2023-05-19T08:31:55.676Z,17.90
2023-05-19T08:34:23.191Z,17.97
2023-05-19T08:36:50.684Z,17.94
2023-05-19T08:39:26.237Z,18.00
2023-05-19T08:41:54.585Z,17.97
2023-05-19T08:44:22.868Z,17.93
2023-05-19T08:46:54.380Z,18.01
2023-05-19T08:49:31.915Z,18.11
2023-05-19T08:52:32.878Z,18.16
2023-05-19T08:55:13.133Z,17.99
2023-05-19T08:57:41.598Z,18.03
2023-05-19T09:00:12.121Z,18.14
2023-05-19T09:02:50.674Z,18.07
2023-05-19T09:05:28.295Z,17.95
2023-05-19T09:07:56.083Z,18.09
2023-05-19T09:10:23.526Z,18.14
2023-05-19T09:12:51.538Z,18.14
2023-05-19T09:15:19.479Z,17.93
2023-05-19T09:17:50.398Z,18.03
2023-05-19T09:20:17.932Z,18.01
2023-05-19T09:22:47.547Z,17.89
2023-05-19T09:25:27.662Z,18.12
2023-05-19T09:27:55.332Z,18.04
2023-05-19T09:30:23.980Z,18.04
2023-05-19T09:32:52.024Z,17.97
2023-05-19T09:35:21.587Z,18.05
2023-05-19T09:37:50.159Z,17.98
2023-05-19T09:40:17.628Z,18.09
2023-05-19T09:42:45.066Z,18.15
2023-05-19T09:45:12.575Z,18.22
2023-05-19T09:47:49.951Z,18.16
2023-05-19T09:50:17.976Z,18.24
2023-05-19T09:52:53.374Z,18.12
2023-05-19T09:55:29.389Z,18.43
2023-05-19T09:57:56.834Z,18.48
2023-05-19T10:00:24.523Z,18.58
2023-05-19T10:02:52.825Z,18.61
2023-05-19T10:05:20.944Z,18.69
2023-05-19T10:07:52.902Z,18.86
2023-05-19T10:10:22.185Z,18.94
2023-05-19T10:12:50.301Z,18.69
2023-05-19T10:15:20.701Z,18.76
2023-05-19T10:17:50.624Z,18.81
2023-05-19T10:20:18.061Z,19.06
2023-05-19T10:22:46.588Z,19.20
2023-05-19T10:25:15.396Z,19.31
2023-05-19T10:27:48.457Z,19.26
2023-05-19T10:30:32.855Z,19.35
2023-05-19T10:33:01.847Z,19.28
2023-05-19T10:35:53.313Z,18.70
2023-05-19T10:38:45.904Z,18.73
2023-05-19T10:41:23.487Z,18.28
2023-05-19T10:44:31.326Z,18.63
2023-05-19T10:46:58.859Z,18.73
2023-05-19T10:49:26.492Z,18.94
2023-05-19T10:51:56.864Z,19.08
2023-05-19T10:54:43.457Z,19.02
2023-05-19T10:57:16.295Z,18.53
2023-05-19T10:59:44.786Z,18.63
2023-05-19T11:02:42.327Z,18.68
2023-05-19T11:05:18.517Z,18.61
2023-05-19T11:07:56.409Z,18.59
2023-05-19T11:10:24.480Z,18.49
2023-05-19T11:12:52.226Z,18.51
2023-05-19T11:15:25.985Z,18.63
2023-05-19T11:17:54.202Z,18.42
2023-05-19T11:20:23.583Z,18.31
2023-05-19T11:23:11.158Z,18.24
2023-05-19T11:25:51.034Z,18.64
2023-05-19T11:28:20.198Z,18.52
2023-05-19T11:30:52.449Z,18.46
2023-05-19T11:33:21.528Z,18.56
2023-05-19T11:35:51.191Z,18.63
2023-05-19T11:38:19.535Z,18.47
2023-05-19T11:40:49.678Z,18.41
2023-05-19T11:43:17.234Z,18.49
2023-05-19T11:45:45.857Z,18.43
2023-05-19T11:48:13.708Z,18.30
2023-05-19T11:50:42.419Z,18.51
2023-05-19T11:53:16.621Z,18.28
2023-05-19T11:55:48.066Z,18.30
2023-05-19T11:58:16.344Z,18.38
2023-05-19T12:00:46.368Z,18.42
2023-05-19T12:03:14.086Z,18.53
2023-05-19T12:05:48.389Z,18.35
2023-05-19T12:08:18.388Z,18.25
2023-05-19T12:10:50.704Z,18.25
2023-05-19T12:13:19.737Z,18.41
2023-05-19T12:15:47.336Z,18.52
2023-05-19T12:18:14.865Z,18.42
2023-05-19T12:20:42.404Z,18.33
2023-05-19T12:23:12.617Z,18.54
2023-05-19T12:25:40.112Z,18.58
2023-05-19T12:28:07.846Z,18.47
2023-05-19T12:30:35.777Z,18.51
2023-05-19T12:33:03.595Z,18.71
2023-05-19T12:35:35.942Z,18.83
2023-05-19T12:38:06.754Z,18.87
2023-05-19T12:40:35.761Z,18.87
2023-05-19T12:43:04.462Z,18.81
2023-05-19T12:45:40.079Z,18.91
2023-05-19T12:48:16.645Z,18.74
2023-05-19T12:50:47.566Z,18.74
2023-05-19T12:53:15.545Z,18.65
2023-05-19T12:55:45.424Z,18.88
2023-05-19T12:58:13.618Z,18.68
2023-05-19T13:00:43.995Z,18.87
2023-05-19T13:03:19.784Z,18.68
2023-05-19T13:05:51.101Z,18.50
2023-05-19T13:08:21.692Z,18.38
2023-05-19T13:10:50.236Z,18.38
2023-05-19T13:13:17.832Z,18.22
2023-05-19T13:15:48.724Z,18.02
2023-05-19T13:18:17.320Z,18.08
2023-05-19T13:20:45.565Z,18.10
2023-05-19T13:23:14.410Z,18.28
2023-05-19T13:25:42.684Z,18.14
2023-05-19T13:28:10.542Z,18.13
2023-05-19T13:30:40.950Z,17.79
2023-05-19T13:33:08.476Z,17.85
2023-05-19T13:35:39.085Z,18.01
2023-05-19T13:38:09.708Z,18.04
2023-05-19T13:40:38.069Z,17.98
2023-05-19T13:43:06.252Z,17.85
2023-05-19T13:45:33.995Z,17.78
2023-05-19T13:48:01.671Z,17.68
2023-05-19T13:50:29.233Z,17.68
2023-05-19T13:52:57.143Z,17.39
2023-05-19T13:55:26.315Z,17.52
2023-05-19T13:57:53.710Z,17.57
2023-05-19T14:00:21.496Z,17.31
2023-05-19T14:02:49.096Z,17.13
2023-05-19T14:05:18.264Z,17.10
2023-05-19T14:07:46.335Z,16.96
2023-05-19T14:10:13.846Z,17.04
2023-05-19T14:13:02.431Z,16.87
2023-05-19T14:15:29.090Z,16.83
2023-05-19T14:17:56.569Z,16.81
2023-05-19T14:20:23.973Z,16.97
2023-05-19T14:22:51.306Z,16.87
2023-05-19T14:25:18.880Z,16.78
2023-05-19T14:27:46.249Z,16.65
2023-05-19T14:30:15.037Z,16.57
2023-05-19T14:32:42.478Z,16.56
2023-05-19T14:35:09.999Z,16.50
2023-05-19T14:37:37.459Z,16.46
2023-05-19T14:40:05.361Z,16.41
2023-05-19T14:42:32.892Z,16.34
2023-05-19T14:45:00.327Z,16.42
2023-05-19T14:47:27.708Z,16.39
2023-05-19T14:49:55.106Z,16.51
2023-05-19T14:52:22.942Z,16.74
2023-05-19T14:54:50.420Z,16.70
2023-05-19T14:57:17.905Z,16.58
2023-05-19T14:59:45.311Z,16.92
2023-05-19T15:02:12.749Z,16.80
2023-05-19T15:04:40.206Z,16.78
2023-05-19T15:07:11.110Z,16.76
2023-05-19T15:09:38.828Z,16.69
2023-05-19T15:12:06.339Z,16.73
2023-05-19T15:14:33.776Z,16.71
2023-05-19T15:17:01.392Z,16.63
2023-05-19T15:19:29.063Z,16.67
2023-05-19T15:21:56.624Z,16.68
2023-05-19T15:24:24.274Z,16.74
2023-05-19T15:26:52.114Z,16.73
2023-05-19T15:29:19.801Z,16.65
2023-05-19T15:31:51.737Z,16.66
2023-05-19T15:34:22.033Z,16.73
2023-05-19T15:36:49.423Z,16.68
2023-05-19T15:39:16.853Z,16.72
2023-05-19T15:41:44.907Z,16.81
2023-05-19T15:44:14.683Z,16.67
2023-05-19T15:46:42.223Z,16.59
2023-05-19T15:49:09.664Z,16.61
2023-05-19T15:51:40.317Z,16.51
2023-05-19T15:54:07.791Z,16.50
2023-05-19T15:56:35.285Z,16.47
2023-05-19T15:59:02.694Z,16.47
2023-05-19T16:01:30.446Z,16.37
2023-05-19T16:03:57.966Z,16.57
2023-05-19T16:06:27.538Z,16.54
2023-05-19T16:08:54.971Z,16.47
2023-05-19T16:11:23.457Z,16.28
2023-05-19T16:13:50.831Z,16.15
2023-05-19T16:16:18.820Z,16.06
2023-05-19T16:18:46.367Z,16.07
2023-05-19T16:21:13.912Z,16.19
2023-05-19T16:23:41.242Z,16.27
2023-05-19T16:26:10.973Z,16.18
2023-05-19T16:28:38.405Z,16.14
2023-05-19T16:31:05.904Z,16.16
2023-05-19T16:33:33.377Z,16.24
2023-05-19T16:36:00.847Z,16.15
2023-05-19T16:38:28.363Z,16.27
2023-05-19T16:40:55.800Z,16.20
2023-05-19T16:43:23.185Z,16.20
2023-05-19T16:45:50.707Z,16.03
2023-05-19T16:48:18.073Z,15.95
2023-05-19T16:50:48.798Z,15.97
2023-05-19T16:53:16.164Z,16.11
2023-05-19T16:55:43.607Z,16.05
2023-05-19T16:58:13.859Z,16.01
2023-05-19T17:00:41.231Z,15.95
2023-05-19T17:03:08.623Z,15.93
2023-05-19T17:05:38.265Z,15.89
2023-05-19T17:08:06.086Z,15.89
2023-05-19T17:10:34.657Z,15.88
2023-05-19T17:13:02.190Z,15.92
2023-05-19T17:15:30.333Z,15.90
2023-05-19T17:17:57.786Z,15.85
2023-05-19T17:20:25.269Z,15.84
2023-05-19T17:22:52.794Z,15.75
2023-05-19T17:25:20.215Z,15.65
2023-05-19T17:27:47.581Z,15.58
2023-05-19T17:30:15.038Z,15.56
2023-05-19T17:32:42.413Z,15.52
2023-05-19T17:35:10.270Z,15.47
2023-05-19T17:37:37.686Z,15.46
2023-05-19T17:40:05.638Z,15.50
2023-05-19T17:42:33.003Z,15.54
2023-05-19T17:45:00.536Z,15.51
2023-05-19T17:47:28.012Z,15.51
2023-05-19T17:49:55.553Z,15.45
2023-05-19T17:52:23.945Z,15.44
2023-05-19T17:54:51.736Z,15.47
2023-05-19T17:57:21.777Z,15.50
2023-05-19T17:59:49.399Z,15.46
2023-05-19T18:02:18.612Z,15.47
2023-05-19T18:04:46.452Z,15.44
2023-05-19T18:07:14.209Z,15.43
2023-05-19T18:09:45.574Z,15.43
2023-05-19T18:12:13.007Z,15.43
2023-05-19T18:14:40.574Z,15.40
2023-05-19T18:17:08.062Z,15.39
2023-05-19T18:19:35.557Z,15.38
2023-05-19T18:22:03.563Z,15.40
2023-05-19T18:24:30.913Z,15.47
2023-05-19T18:26:58.463Z,15.39
2023-05-19T18:29:25.900Z,15.46
2023-05-19T18:31:53.404Z,15.44
2023-05-19T18:34:20.845Z,15.46
2023-05-19T18:36:48.280Z,15.46
2023-05-19T18:39:15.640Z,15.45
2023-05-19T18:41:43.078Z,15.49
2023-05-19T18:44:11.504Z,15.59
2023-05-19T18:46:41.624Z,15.52
2023-05-19T18:49:11.649Z,15.50
2023-05-19T18:51:39.462Z,15.52
2023-05-19T18:54:07.284Z,15.47
2023-05-19T18:56:35.493Z,15.46
2023-05-19T18:59:02.935Z,15.44
2023-05-19T19:01:30.419Z,15.52
2023-05-19T19:03:57.902Z,15.50
2023-05-19T19:06:25.394Z,15.45
2023-05-19T19:08:53.940Z,15.46
2023-05-19T19:11:21.373Z,15.43
2023-05-19T19:13:51.359Z,15.48
2023-05-19T19:16:18.993Z,15.49
2023-05-19T19:18:46.633Z,15.43
2023-05-19T19:21:13.998Z,15.53
2023-05-19T19:23:41.468Z,15.59
2023-05-19T19:26:09.607Z,15.59
2023-05-19T19:28:37.154Z,15.69
2023-05-19T19:31:04.625Z,15.74
2023-05-19T19:33:32.209Z,15.73
2023-05-19T19:35:59.663Z,15.70
2023-05-19T19:38:27.098Z,15.69
2023-05-19T19:40:57.753Z,15.72
2023-05-19T19:43:25.279Z,15.76
2023-05-19T19:46:01.243Z,15.78
2023-05-19T19:48:29.053Z,15.76
2023-05-19T19:50:57.777Z,15.82
2023-05-19T19:53:25.451Z,15.79
2023-05-19T19:56:00.162Z,15.76
2023-05-19T19:58:28.508Z,15.74
2023-05-19T20:01:01.870Z,15.73
2023-05-19T20:03:29.567Z,15.71
2023-05-19T20:05:57.174Z,15.67
2023-05-19T20:08:25.453Z,15.68
2023-05-19T20:10:53.416Z,15.63
2023-05-19T20:13:20.948Z,15.70
2023-05-19T20:15:48.646Z,15.68
2023-05-19T20:18:16.159Z,15.69
2023-05-19T20:20:43.687Z,15.74
2023-05-19T20:23:12.582Z,15.75
2023-05-19T20:26:02.411Z,15.81
2023-05-19T20:28:32.172Z,15.74
2023-05-19T20:30:59.662Z,15.73
2023-05-19T20:33:27.089Z,15.75
2023-05-19T20:35:54.471Z,15.80
2023-05-19T20:38:21.891Z,15.83
2023-05-19T20:40:49.281Z,15.92
2023-05-19T20:43:16.722Z,15.87
2023-05-19T20:45:44.450Z,15.77
2023-05-19T20:48:11.943Z,15.72
2023-05-19T20:50:42.454Z,15.66
2023-05-19T20:53:09.917Z,15.62
2023-05-19T20:55:38.890Z,15.62
2023-05-19T20:58:06.523Z,15.58
2023-05-19T21:00:34.082Z,15.53
2023-05-19T21:03:01.844Z,15.60
2023-05-19T21:05:29.398Z,15.59
2023-05-19T21:07:56.887Z,15.56
2023-05-19T21:10:24.355Z,15.51
2023-05-19T21:12:51.818Z,15.57
2023-05-19T21:15:19.259Z,15.60
2023-05-19T21:17:46.900Z,15.70
2023-05-19T21:20:14.355Z,15.66
2023-05-19T21:22:41.809Z,15.67
2023-05-19T21:25:09.362Z,15.68
2023-05-19T21:27:36.762Z,15.65
2023-05-19T21:30:04.382Z,15.62
2023-05-19T21:32:32.489Z,15.56
2023-05-19T21:35:00.292Z,15.61
2023-05-19T21:37:27.710Z,15.59
2023-05-19T21:39:55.148Z,15.49
2023-05-19T21:42:22.586Z,15.40
2023-05-19T21:44:50.019Z,15.24
2023-05-19T21:47:17.435Z,15.19
2023-05-19T21:49:44.862Z,15.11
2023-05-19T21:52:12.274Z,15.09
2023-05-19T21:54:39.742Z,15.08
2023-05-19T21:57:07.266Z,15.05
2023-05-19T21:59:34.637Z,15.07
2023-05-19T22:02:02.090Z,15.05
2023-05-19T22:04:31.568Z,15.10
2023-05-19T22:06:59.239Z,15.10
2023-05-19T22:09:27.007Z,15.18
2023-05-19T22:11:54.401Z,15.18
2023-05-19T22:14:21.763Z,15.14
2023-05-19T22:16:49.356Z,15.09
2023-05-19T22:19:35.522Z,15.12
2023-05-19T22:22:13.232Z,15.11
2023-05-19T22:24:41.993Z,15.18
2023-05-19T22:27:09.406Z,15.14
2023-05-19T22:29:40.428Z,15.20
2023-05-19T22:32:11.900Z,15.27
2023-05-19T22:34:39.949Z,15.73
2023-05-19T22:37:07.451Z,15.71
2023-05-19T22:39:34.807Z,15.63
2023-05-19T22:42:02.679Z,15.83
2023-05-19T22:44:32.815Z,16.00
2023-05-19T22:47:00.218Z,16.18
2023-05-19T22:49:29.410Z,16.11
2023-05-19T22:51:56.864Z,16.11
2023-05-19T22:54:26.300Z,16.24
2023-05-19T22:56:53.740Z,16.35
2023-05-19T22:59:21.598Z,16.24
2023-05-19T23:01:49.080Z,16.17
2023-05-19T23:04:16.580Z,16.22
2023-05-19T23:06:44.199Z,16.26
2023-05-19T23:09:11.855Z,16.26
2023-05-19T23:11:39.208Z,16.33
2023-05-19T23:14:06.622Z,16.36
2023-05-19T23:16:34.066Z,16.33
2023-05-19T23:19:01.530Z,16.26
2023-05-19T23:21:31.542Z,16.21
2023-05-19T23:23:59.519Z,16.22
2023-05-19T23:26:26.987Z,16.40
2023-05-19T23:28:54.377Z,16.37
2023-05-19T23:31:21.809Z,16.37
2023-05-19T23:33:49.245Z,16.46
2023-05-19T23:36:17.733Z,16.35
2023-05-19T23:38:45.104Z,16.36
2023-05-19T23:41:12.832Z,16.50
2023-05-19T23:43:40.426Z,16.57
2023-05-19T23:46:08.041Z,16.51
2023-05-19T23:48:36.688Z,16.50
2023-05-19T23:51:04.273Z,16.33
2023-05-19T23:53:31.654Z,16.55
2023-05-19T23:55:59.096Z,16.53
2023-05-19T23:58:26.424Z,16.60
